Uden, Netherlands
Current Conditions -  °F | °C
As of 11:55 PM on Friday 28 Nov 2014 (Local Time) from EHVK Reporting Station
Haze Haze  
Wind Chill: 29°   Ceiling: Unl
Heat Index: 37°   Visibility: 4mi
Dew Point: 34°   Wind: 13mph
Humidity: 87%   Direction: 90°E
Pressure: 29.88"   Gusts: NA
Location:  51.66°N, 5.62°E
Report Text: EHVK 282255Z AUTO 09011KT 6000 BR NCD 03/01 Q1012 WHT
Loading
Personal Weather Stations






























Interactive Weather Map New forecast layout! Learn more

10-Day Weather Forecast

Advertisements
Track Severe Weather on mobile